MET'MAP v2.0
soon released !

Expected late october,
this new version will be
more efficient, smarter,
and hosted on a brand new
server x3 powerfull...
...and still free !


Not compatible ?
Try the mobile version !

LOG IN : | Subscribe | Disclaimer | Who is Orbifly ? |
ICAO code :
Legend : VFR Marginal VFR IFR Intensive IFR Very Intensive IFR
Visi :
Ceiling :
>= 8 km
>= 3000ft
5 to 8 km
1000 to 3000 ft
1500m to 5 km
500 to 1000 ft
800 to 1500m
200 to 500 ft
< 800m
< 200 ft

METAR - LIPZ Marco Polo Int. Venezia - 25 Feb 2020 08:10 UTC
Data Sources :     NOAA   


- Airport Elevation : 7 ft
- IATA code : VCE
- No reported NOTAMs.


LIPZ - Marco Polo Int. Venezia

Latest METAR recorded : 2015/08/11 07:50 LIPZ 110750Z 01007KT 320V040 CAVOK 27/14 Q1012
TAF TAF LIPZ
Valid from the 25 at 06:00 until the 26 at 12:00 UTC


250500Z 2506/2612 VRB05KT 7000 BKN040
TEMPO 2506/2508 2000 BCFG
BECMG 2518/2520 2500 BR
TEMPO 2522/2602 0600 FG BKN005
BECMG 2602/2604 24012KT 7000
TEMPO 2608/2612 24015G25KT

Source NOAA


MET'MAP, your aeronautical weather chart ! - Copyright ORBIFLY December 2007

Programming & Development : Alexandra Zaïnal
Co-Developer : Marc-Olivier Méhu
Technical & hardware support : Manuel Goepfert
Concept & Financing : Baudouin d'Aumeries